createdAt,value
2022-10-03T00:00:21.124Z,100.00
2022-10-03T00:03:39.687Z,100.00
2022-10-03T00:06:30.137Z,100.00
2022-10-03T00:09:27.220Z,100.00
2022-10-03T00:12:07.493Z,100.00
2022-10-03T00:14:57.786Z,100.00
2022-10-03T00:18:06.632Z,100.00
2022-10-03T00:20:45.701Z,100.00
2022-10-03T00:23:41.895Z,100.00
2022-10-03T00:26:28.366Z,100.00
2022-10-03T00:29:25.383Z,100.00
2022-10-03T00:32:11.975Z,100.00
2022-10-03T00:34:58.918Z,100.00
2022-10-03T00:37:35.702Z,100.00
2022-10-03T00:40:40.937Z,100.00
2022-10-03T00:43:11.766Z,100.00
2022-10-03T00:45:45.429Z,100.00
2022-10-03T00:48:33.944Z,100.00
2022-10-03T00:51:19.721Z,100.00
2022-10-03T00:54:22.233Z,100.00
2022-10-03T00:57:05.013Z,100.00
2022-10-03T00:59:48.580Z,100.00
2022-10-03T01:02:33.192Z,100.00
2022-10-03T01:05:13.145Z,100.00
2022-10-03T01:07:46.886Z,100.00
2022-10-03T01:10:22.331Z,100.00
2022-10-03T01:12:59.536Z,100.00
2022-10-03T01:15:47.204Z,100.00
2022-10-03T01:18:30.068Z,100.00
2022-10-03T01:21:04.520Z,100.00
2022-10-03T01:23:45.504Z,100.00
2022-10-03T01:26:24.600Z,100.00
2022-10-03T01:29:24.229Z,100.00
2022-10-03T01:32:04.067Z,100.00
2022-10-03T01:34:49.555Z,100.00
2022-10-03T01:37:35.731Z,100.00
2022-10-03T01:40:34.353Z,100.00
2022-10-03T01:43:13.676Z,100.00
2022-10-03T01:45:59.945Z,100.00
2022-10-03T01:48:43.841Z,100.00
2022-10-03T01:52:00.232Z,100.00
2022-10-03T01:54:33.399Z,100.00
2022-10-03T01:57:19.617Z,100.00
2022-10-03T01:59:47.659Z,100.00
2022-10-03T02:02:48.717Z,100.00
2022-10-03T02:05:35.694Z,100.00
2022-10-03T02:08:17.229Z,100.00
2022-10-03T02:11:03.148Z,100.00
2022-10-03T02:13:44.204Z,100.00
2022-10-03T02:16:57.495Z,100.00
2022-10-03T02:19:48.887Z,100.00
2022-10-03T02:22:42.681Z,100.00
2022-10-03T02:25:22.862Z,100.00
2022-10-03T02:27:59.815Z,100.00
2022-10-03T02:31:11.887Z,100.00
2022-10-03T02:33:55.093Z,100.00
2022-10-03T02:36:43.945Z,100.00
2022-10-03T02:39:39.080Z,100.00
2022-10-03T02:42:44.081Z,100.00
2022-10-03T02:45:40.987Z,100.00
2022-10-03T02:48:31.906Z,100.00
2022-10-03T02:51:40.396Z,100.00
2022-10-03T02:54:36.298Z,100.00
2022-10-03T02:57:27.845Z,100.00
2022-10-03T03:00:14.691Z,100.00
2022-10-03T03:03:10.553Z,100.00
2022-10-03T03:05:57.577Z,100.00
2022-10-03T03:09:00.779Z,100.00
2022-10-03T03:12:07.908Z,100.00
2022-10-03T03:15:13.532Z,100.00
2022-10-03T03:18:07.089Z,100.00
2022-10-03T03:21:14.881Z,100.00
2022-10-03T03:24:07.153Z,100.00
2022-10-03T03:27:22.315Z,100.00
2022-10-03T03:30:11.337Z,100.00
2022-10-03T03:33:33.113Z,100.00
2022-10-03T03:36:05.413Z,100.00
2022-10-03T03:38:42.105Z,100.00
2022-10-03T03:41:18.380Z,100.00
2022-10-03T03:44:23.237Z,100.00
2022-10-03T03:47:38.941Z,100.00
2022-10-03T03:50:24.857Z,100.00
2022-10-03T03:53:22.842Z,100.00
2022-10-03T03:56:16.530Z,100.00
2022-10-03T03:59:09.241Z,100.00
2022-10-03T04:01:49.368Z,100.00
2022-10-03T04:04:22.577Z,100.00
2022-10-03T04:07:03.695Z,100.00
2022-10-03T04:09:55.100Z,100.00
2022-10-03T04:12:59.684Z,100.00
2022-10-03T04:15:56.248Z,100.00
2022-10-03T04:19:00.906Z,100.00
2022-10-03T04:22:12.138Z,100.00
2022-10-03T04:24:39.626Z,100.00
2022-10-03T04:27:19.448Z,100.00
2022-10-03T04:30:05.606Z,100.00
2022-10-03T04:32:42.237Z,100.00
2022-10-03T04:35:21.777Z,100.00
2022-10-03T04:38:35.067Z,100.00
2022-10-03T04:41:43.223Z,100.00
2022-10-03T04:44:19.820Z,100.00
2022-10-03T04:47:07.123Z,100.00
2022-10-03T04:49:52.465Z,100.00
2022-10-03T04:52:33.377Z,100.00
2022-10-03T04:55:23.428Z,100.00
2022-10-03T04:58:09.698Z,100.00
2022-10-03T05:00:58.601Z,100.00
2022-10-03T05:04:14.288Z,100.00
2022-10-03T05:06:48.149Z,100.00
2022-10-03T05:09:26.588Z,100.00
2022-10-03T05:12:18.236Z,100.00
2022-10-03T05:15:14.300Z,100.00
2022-10-03T05:17:52.496Z,100.00
2022-10-03T05:20:26.872Z,100.00
2022-10-03T05:23:12.381Z,100.00
2022-10-03T05:26:24.700Z,100.00
2022-10-03T05:29:30.199Z,100.00
2022-10-03T05:32:32.517Z,100.00
2022-10-03T05:35:18.625Z,100.00
2022-10-03T05:38:16.481Z,100.00
2022-10-03T05:41:08.468Z,100.00
2022-10-03T05:43:58.392Z,100.00
2022-10-03T05:46:44.564Z,100.00
2022-10-03T05:49:27.927Z,100.00
2022-10-03T05:52:04.543Z,100.00
2022-10-03T05:54:45.877Z,100.00
2022-10-03T05:57:35.178Z,100.00
2022-10-03T06:00:23.443Z,100.00
2022-10-03T06:02:59.545Z,100.00
2022-10-03T06:05:36.075Z,100.00
2022-10-03T06:08:31.634Z,100.00
2022-10-03T06:11:34.721Z,100.00
2022-10-03T06:14:24.020Z,100.00
2022-10-03T06:17:04.340Z,100.00
2022-10-03T06:19:35.474Z,100.00
2022-10-03T06:22:40.544Z,100.00
2022-10-03T06:25:07.987Z,100.00
2022-10-03T06:27:56.817Z,100.00
2022-10-03T06:31:01.942Z,100.00
2022-10-03T06:33:51.729Z,100.00
2022-10-03T06:36:32.687Z,100.00
2022-10-03T06:39:28.036Z,100.00
2022-10-03T06:42:32.606Z,100.00
2022-10-03T06:45:18.164Z,100.00
2022-10-03T06:48:21.565Z,100.00
2022-10-03T06:51:04.227Z,100.00
2022-10-03T06:53:48.397Z,100.00
2022-10-03T06:56:38.291Z,100.00
2022-10-03T06:59:47.414Z,100.00
2022-10-03T07:02:45.971Z,100.00
2022-10-03T07:05:51.740Z,100.00
2022-10-03T07:08:43.843Z,100.00
2022-10-03T07:11:11.417Z,100.00
2022-10-03T07:14:10.438Z,100.00
2022-10-03T07:16:53.146Z,100.00
2022-10-03T07:19:48.098Z,100.00
2022-10-03T07:22:40.045Z,100.00
2022-10-03T07:25:38.113Z,100.00
2022-10-03T07:28:32.971Z,100.00
2022-10-03T07:31:23.114Z,100.00
2022-10-03T07:33:50.657Z,100.00
2022-10-03T07:36:55.519Z,100.00
2022-10-03T07:40:02.079Z,100.00
2022-10-03T07:42:57.415Z,100.00
2022-10-03T07:45:34.792Z,100.00
2022-10-03T07:48:38.128Z,100.00
2022-10-03T07:51:35.696Z,100.00
2022-10-03T07:54:09.146Z,100.00
2022-10-03T07:56:49.923Z,100.00
2022-10-03T07:59:20.391Z,100.00
2022-10-03T08:02:20.428Z,100.00
2022-10-03T08:05:11.537Z,100.00
2022-10-03T08:08:11.880Z,100.00
2022-10-03T08:11:01.192Z,100.00
2022-10-03T08:14:11.592Z,100.00
2022-10-03T08:17:09.806Z,100.00
2022-10-03T08:20:02.364Z,100.00
2022-10-03T08:22:48.725Z,100.00
2022-10-03T08:25:33.860Z,100.00
2022-10-03T08:28:22.959Z,100.00
2022-10-03T08:31:11.982Z,100.00
2022-10-03T08:34:16.976Z,100.00
2022-10-03T08:37:22.993Z,100.00
2022-10-03T08:39:59.458Z,100.00
2022-10-03T08:42:30.477Z,100.00
2022-10-03T08:45:19.401Z,100.00
2022-10-03T08:47:52.833Z,100.00
2022-10-03T08:50:35.971Z,100.00
2022-10-03T08:53:13.380Z,100.00
2022-10-03T08:55:56.004Z,100.00
2022-10-03T08:58:38.731Z,100.00
2022-10-03T09:01:30.350Z,100.00
2022-10-03T09:03:57.869Z,100.00
2022-10-03T09:07:17.096Z,100.00
2022-10-03T09:09:54.140Z,100.00
2022-10-03T09:12:26.057Z,100.00
2022-10-03T09:15:23.923Z,100.00
2022-10-03T09:18:05.381Z,100.00
2022-10-03T09:21:08.291Z,100.00
2022-10-03T09:23:48.105Z,100.00
2022-10-03T09:26:15.688Z,100.00
2022-10-03T09:28:58.654Z,100.00
2022-10-03T09:31:53.818Z,100.00
2022-10-03T09:34:55.449Z,100.00
2022-10-03T09:37:41.195Z,100.00
2022-10-03T09:40:08.901Z,100.00
2022-10-03T09:42:47.561Z,100.00
2022-10-03T09:45:43.084Z,100.00
2022-10-03T09:48:22.760Z,100.00
2022-10-03T09:50:56.090Z,100.00
2022-10-03T09:54:00.962Z,100.00
2022-10-03T09:56:56.568Z,100.00
2022-10-03T09:59:48.875Z,100.00
2022-10-03T10:03:01.208Z,100.00
2022-10-03T10:05:38.131Z,100.00
2022-10-03T10:08:11.576Z,100.00
2022-10-03T10:11:14.260Z,100.00
2022-10-03T10:14:29.813Z,100.00
2022-10-03T10:17:19.257Z,100.00
2022-10-03T10:19:51.447Z,100.00
2022-10-03T10:22:57.712Z,100.00
2022-10-03T10:25:39.201Z,100.00
2022-10-03T10:28:18.766Z,100.00
2022-10-03T10:31:05.026Z,100.00
2022-10-03T10:33:38.649Z,100.00
2022-10-03T10:36:37.338Z,100.00
2022-10-03T10:39:22.932Z,100.00
2022-10-03T10:42:08.667Z,100.00
2022-10-03T10:44:44.800Z,100.00
2022-10-03T10:47:33.872Z,100.00
2022-10-03T10:50:22.977Z,100.00
2022-10-03T10:53:28.120Z,100.00
2022-10-03T10:56:09.129Z,100.00
2022-10-03T10:58:58.298Z,100.00
2022-10-03T11:01:38.958Z,100.00
2022-10-03T11:04:46.972Z,98.94
2022-10-03T11:08:03.044Z,99.25
2022-10-03T11:10:35.923Z,100.00
2022-10-03T11:13:18.613Z,100.00
2022-10-03T11:16:01.465Z,98.70
2022-10-03T11:18:51.348Z,98.28
2022-10-03T11:21:50.352Z,100.00
2022-10-03T11:24:36.081Z,100.00
2022-10-03T11:27:25.235Z,100.00
2022-10-03T11:30:05.151Z,100.00
2022-10-03T11:32:51.226Z,99.27
2022-10-03T11:35:50.225Z,97.03
2022-10-03T11:38:27.087Z,97.40
2022-10-03T11:41:13.241Z,96.64
2022-10-03T11:44:16.592Z,94.86
2022-10-03T11:47:03.515Z,93.86
2022-10-03T11:49:43.461Z,95.51
2022-10-03T11:52:28.007Z,92.78
2022-10-03T11:55:20.204Z,93.61
2022-10-03T11:57:59.270Z,92.16
2022-10-03T12:00:33.288Z,93.51
2022-10-03T12:03:13.958Z,92.90
2022-10-03T12:05:53.376Z,91.99
2022-10-03T12:08:52.154Z,93.19
2022-10-03T12:11:43.913Z,96.15
2022-10-03T12:14:17.355Z,96.59
2022-10-03T12:17:03.226Z,98.53
2022-10-03T12:19:49.913Z,94.27
2022-10-03T12:22:55.573Z,92.76
2022-10-03T12:25:25.277Z,92.27
2022-10-03T12:28:11.401Z,92.33
2022-10-03T12:31:06.185Z,93.11
2022-10-03T12:33:46.930Z,94.06
2022-10-03T12:36:25.636Z,94.31
2022-10-03T12:39:39.194Z,92.60
2022-10-03T12:42:31.176Z,92.49
2022-10-03T12:45:19.123Z,93.61
2022-10-03T12:48:15.029Z,91.95
2022-10-03T12:51:06.226Z,91.34
2022-10-03T12:53:47.632Z,91.69
2022-10-03T12:56:55.541Z,92.02
2022-10-03T12:59:25.917Z,92.39
2022-10-03T13:02:12.529Z,91.95
2022-10-03T13:04:55.610Z,92.93
2022-10-03T13:07:33.848Z,91.37
2022-10-03T13:10:22.971Z,91.64
2022-10-03T13:13:32.049Z,90.94
2022-10-03T13:16:28.182Z,92.52
2022-10-03T13:18:56.128Z,93.11
2022-10-03T13:21:56.257Z,93.59
2022-10-03T13:24:50.792Z,91.33
2022-10-03T13:27:24.337Z,89.06
2022-10-03T13:30:05.397Z,89.17
2022-10-03T13:32:37.779Z,90.92
2022-10-03T13:35:39.024Z,89.26
2022-10-03T13:38:23.786Z,90.97
2022-10-03T13:41:14.922Z,91.71
2022-10-03T13:43:49.988Z,89.26
2022-10-03T13:46:32.290Z,86.97
2022-10-03T13:49:10.976Z,87.30
2022-10-03T13:51:45.652Z,86.58
2022-10-03T13:54:39.412Z,88.64
2022-10-03T13:57:20.276Z,87.58
2022-10-03T14:00:23.408Z,87.20
2022-10-03T14:03:11.239Z,88.14
2022-10-03T14:05:50.501Z,89.19
2022-10-03T14:08:47.365Z,88.96
2022-10-03T14:11:24.353Z,88.89
2022-10-03T14:14:24.213Z,89.39
2022-10-03T14:17:00.782Z,90.03
2022-10-03T14:19:54.227Z,89.22
2022-10-03T14:22:45.277Z,91.33
2022-10-03T14:25:25.925Z,91.98
2022-10-03T14:28:12.170Z,93.02
2022-10-03T14:31:10.470Z,93.58
2022-10-03T14:33:54.569Z,96.08
2022-10-03T14:36:22.037Z,96.66
2022-10-03T14:39:14.898Z,98.75
2022-10-03T14:41:47.733Z,99.35
2022-10-03T14:44:28.741Z,100.00
2022-10-03T14:47:03.366Z,100.00
2022-10-03T14:49:54.812Z,100.00
2022-10-03T14:52:27.052Z,100.00
2022-10-03T14:54:57.905Z,100.00
2022-10-03T14:57:47.893Z,100.00
2022-10-03T15:00:33.380Z,100.00
2022-10-03T15:03:15.647Z,100.00
2022-10-03T15:05:55.081Z,100.00
2022-10-03T15:08:24.209Z,100.00
2022-10-03T15:10:55.401Z,100.00
2022-10-03T15:13:25.167Z,100.00
2022-10-03T15:15:56.590Z,100.00
2022-10-03T15:18:25.420Z,100.00
2022-10-03T15:20:55.214Z,100.00
2022-10-03T15:23:22.680Z,100.00
2022-10-03T15:25:54.124Z,100.00
2022-10-03T15:28:37.189Z,100.00
2022-10-03T15:31:26.512Z,100.00
2022-10-03T15:33:55.464Z,100.00
2022-10-03T15:36:27.055Z,100.00
2022-10-03T15:39:05.431Z,100.00
2022-10-03T15:41:49.971Z,100.00
2022-10-03T15:44:33.890Z,100.00
2022-10-03T15:47:06.819Z,100.00
2022-10-03T15:49:57.109Z,100.00
2022-10-03T15:52:32.451Z,100.00
2022-10-03T15:55:12.659Z,100.00
2022-10-03T15:57:46.690Z,100.00
2022-10-03T16:00:26.207Z,100.00
2022-10-03T16:03:06.380Z,100.00
2022-10-03T16:05:36.752Z,100.00
2022-10-03T16:08:20.594Z,100.00
2022-10-03T16:11:22.605Z,100.00
2022-10-03T16:14:07.429Z,100.00
2022-10-03T16:16:39.367Z,100.00
2022-10-03T16:19:23.358Z,100.00
2022-10-03T16:21:57.096Z,100.00
2022-10-03T16:25:06.677Z,100.00
2022-10-03T16:27:41.502Z,100.00
2022-10-03T16:30:11.862Z,100.00
2022-10-03T16:32:56.790Z,100.00
2022-10-03T16:35:42.179Z,100.00
2022-10-03T16:38:25.163Z,100.00
2022-10-03T16:41:00.198Z,100.00
2022-10-03T16:43:31.430Z,100.00
2022-10-03T16:46:18.938Z,100.00
2022-10-03T16:49:05.367Z,100.00
2022-10-03T16:51:41.632Z,100.00
2022-10-03T16:54:19.520Z,100.00
2022-10-03T16:57:00.462Z,100.00
2022-10-03T16:59:31.277Z,100.00
2022-10-03T17:02:10.600Z,100.00
2022-10-03T17:04:42.223Z,100.00
2022-10-03T17:07:23.755Z,100.00
2022-10-03T17:09:54.372Z,100.00
2022-10-03T17:12:38.920Z,100.00
2022-10-03T17:15:28.798Z,100.00
2022-10-03T17:18:23.330Z,100.00
2022-10-03T17:21:03.988Z,100.00
2022-10-03T17:23:38.756Z,100.00
2022-10-03T17:26:15.235Z,100.00
2022-10-03T17:28:52.119Z,100.00
2022-10-03T17:31:30.111Z,100.00
2022-10-03T17:34:22.138Z,100.00
2022-10-03T17:37:27.017Z,100.00
2022-10-03T17:40:14.272Z,100.00
2022-10-03T17:42:46.931Z,100.00
2022-10-03T17:45:38.821Z,100.00
2022-10-03T17:48:18.749Z,100.00
2022-10-03T17:51:39.063Z,100.00
2022-10-03T17:54:19.984Z,100.00
2022-10-03T17:57:06.060Z,100.00
2022-10-03T17:59:46.934Z,100.00
2022-10-03T18:02:34.843Z,100.00
2022-10-03T18:05:12.777Z,100.00
2022-10-03T18:07:44.757Z,100.00
2022-10-03T18:10:30.631Z,100.00
2022-10-03T18:13:02.107Z,100.00
2022-10-03T18:15:40.916Z,100.00
2022-10-03T18:18:48.175Z,100.00
2022-10-03T18:21:15.585Z,100.00
2022-10-03T18:23:54.646Z,100.00
2022-10-03T18:26:31.333Z,100.00
2022-10-03T18:29:14.096Z,100.00
2022-10-03T18:31:45.820Z,100.00
2022-10-03T18:34:29.445Z,100.00
2022-10-03T18:37:00.887Z,100.00
2022-10-03T18:39:34.136Z,100.00
2022-10-03T18:42:02.941Z,100.00
2022-10-03T18:44:33.008Z,100.00
2022-10-03T18:47:26.166Z,100.00
2022-10-03T18:50:13.936Z,100.00
2022-10-03T18:52:53.132Z,100.00
2022-10-03T18:55:29.608Z,100.00
2022-10-03T18:58:06.966Z,100.00
2022-10-03T19:00:46.328Z,100.00
2022-10-03T19:03:19.456Z,100.00
2022-10-03T19:06:19.681Z,100.00
2022-10-03T19:09:01.495Z,100.00
2022-10-03T19:11:47.743Z,100.00
2022-10-03T19:14:57.072Z,100.00
2022-10-03T19:17:25.692Z,100.00
2022-10-03T19:20:17.173Z,100.00
2022-10-03T19:23:11.408Z,100.00
2022-10-03T19:25:43.871Z,100.00
2022-10-03T19:28:23.079Z,100.00
2022-10-03T19:31:07.838Z,100.00
2022-10-03T19:33:44.152Z,100.00
2022-10-03T19:36:27.872Z,100.00
2022-10-03T19:38:58.227Z,100.00
2022-10-03T19:41:46.466Z,100.00
2022-10-03T19:44:17.352Z,100.00
2022-10-03T19:46:51.164Z,100.00
2022-10-03T19:49:18.881Z,100.00
2022-10-03T19:51:48.905Z,100.00
2022-10-03T19:54:43.609Z,100.00
2022-10-03T19:57:21.032Z,100.00
2022-10-03T19:59:55.376Z,100.00
2022-10-03T20:02:27.955Z,100.00
2022-10-03T20:04:57.797Z,100.00
2022-10-03T20:07:36.865Z,100.00
2022-10-03T20:10:37.792Z,100.00
2022-10-03T20:13:07.440Z,100.00
2022-10-03T20:15:47.244Z,100.00
2022-10-03T20:18:23.498Z,100.00
2022-10-03T20:20:54.833Z,100.00
2022-10-03T20:23:25.872Z,100.00
2022-10-03T20:26:10.300Z,100.00
2022-10-03T20:29:14.763Z,100.00
2022-10-03T20:31:43.891Z,100.00
2022-10-03T20:34:24.535Z,100.00
2022-10-03T20:36:56.421Z,100.00
2022-10-03T20:39:33.080Z,100.00
2022-10-03T20:42:10.013Z,100.00
2022-10-03T20:44:57.965Z,100.00
2022-10-03T20:47:37.473Z,100.00
2022-10-03T20:50:16.104Z,100.00
2022-10-03T20:52:50.744Z,100.00
2022-10-03T20:55:23.868Z,100.00
2022-10-03T20:58:06.208Z,100.00
2022-10-03T21:00:46.844Z,100.00
2022-10-03T21:03:41.971Z,100.00
2022-10-03T21:06:25.221Z,100.00
2022-10-03T21:08:55.657Z,100.00
2022-10-03T21:11:32.535Z,100.00
2022-10-03T21:14:15.025Z,100.00
2022-10-03T21:16:49.476Z,100.00
2022-10-03T21:19:25.992Z,100.00
2022-10-03T21:21:58.524Z,100.00
2022-10-03T21:24:35.083Z,100.00
2022-10-03T21:27:07.400Z,100.00
2022-10-03T21:29:37.665Z,100.00
2022-10-03T21:32:08.095Z,100.00
2022-10-03T21:34:59.017Z,100.00
2022-10-03T21:37:51.088Z,100.00
2022-10-03T21:40:21.549Z,100.00
2022-10-03T21:42:55.196Z,100.00
2022-10-03T21:45:31.935Z,100.00
2022-10-03T21:48:13.432Z,100.00
2022-10-03T21:50:48.199Z,100.00
2022-10-03T21:53:26.116Z,100.00
2022-10-03T21:56:24.184Z,100.00
2022-10-03T21:59:03.909Z,100.00
2022-10-03T22:01:51.241Z,100.00
2022-10-03T22:04:39.113Z,100.00
2022-10-03T22:07:17.987Z,100.00
2022-10-03T22:09:51.365Z,100.00
2022-10-03T22:12:19.163Z,100.00
2022-10-03T22:15:19.788Z,100.00
2022-10-03T22:17:51.257Z,100.00
2022-10-03T22:20:25.125Z,100.00
2022-10-03T22:23:17.461Z,100.00
2022-10-03T22:26:10.622Z,100.00
2022-10-03T22:28:49.056Z,100.00
2022-10-03T22:31:41.318Z,100.00
2022-10-03T22:34:35.897Z,100.00
2022-10-03T22:37:04.191Z,100.00
2022-10-03T22:39:36.379Z,100.00
2022-10-03T22:42:06.380Z,100.00
2022-10-03T22:44:38.215Z,100.00
2022-10-03T22:47:21.711Z,100.00
2022-10-03T22:49:58.871Z,100.00
2022-10-03T22:52:30.546Z,100.00
2022-10-03T22:55:00.558Z,100.00
2022-10-03T22:57:32.640Z,100.00
2022-10-03T23:00:08.841Z,100.00
2022-10-03T23:02:47.575Z,100.00
2022-10-03T23:05:43.740Z,100.00
2022-10-03T23:08:22.540Z,100.00
2022-10-03T23:11:04.230Z,100.00
2022-10-03T23:13:45.002Z,100.00
2022-10-03T23:16:18.365Z,100.00
2022-10-03T23:19:08.551Z,100.00
2022-10-03T23:21:48.621Z,100.00
2022-10-03T23:24:18.765Z,100.00
2022-10-03T23:27:10.975Z,100.00
2022-10-03T23:29:39.483Z,100.00
2022-10-03T23:32:10.842Z,100.00
2022-10-03T23:34:38.381Z,100.00
2022-10-03T23:37:11.793Z,100.00
2022-10-03T23:39:44.832Z,100.00
2022-10-03T23:42:19.976Z,100.00
2022-10-03T23:44:54.724Z,100.00
2022-10-03T23:47:32.740Z,100.00
2022-10-03T23:50:04.456Z,100.00
2022-10-03T23:52:46.266Z,100.00
2022-10-03T23:55:20.686Z,100.00
2022-10-03T23:57:48.511Z,100.00
